sensor_id;sensor_type;location;lat;lon;timestamp;temperature;humidity
68867;SHT30;56451;44.804;20.476;2022-12-29T00:02:22;8.94;55.59
68867;SHT30;56451;44.804;20.476;2022-12-29T00:04:49;8.98;55.48
68867;SHT30;56451;44.804;20.476;2022-12-29T00:07:16;9.03;55.45
68867;SHT30;56451;44.804;20.476;2022-12-29T00:09:42;9.10;55.26
68867;SHT30;56451;44.804;20.476;2022-12-29T00:12:08;9.05;55.35
68867;SHT30;56451;44.804;20.476;2022-12-29T00:14:34;9.03;55.49
68867;SHT30;56451;44.804;20.476;2022-12-29T00:17:18;8.98;55.77
68867;SHT30;56451;44.804;20.476;2022-12-29T00:19:44;8.97;55.80
68867;SHT30;56451;44.804;20.476;2022-12-29T00:22:28;8.97;55.85
68867;SHT30;56451;44.804;20.476;2022-12-29T00:25:13;8.97;55.95
68867;SHT30;56451;44.804;20.476;2022-12-29T00:27:57;8.96;55.95
68867;SHT30;56451;44.804;20.476;2022-12-29T00:30:42;8.97;56.01
68867;SHT30;56451;44.804;20.476;2022-12-29T00:33:32;9.00;55.85
68867;SHT30;56451;44.804;20.476;2022-12-29T00:36:28;8.98;55.92
68867;SHT30;56451;44.804;20.476;2022-12-29T00:39:04;9.00;55.88
68867;SHT30;56451;44.804;20.476;2022-12-29T00:41:49;8.97;55.85
68867;SHT30;56451;44.804;20.476;2022-12-29T00:44:34;8.96;56.00
68867;SHT30;56451;44.804;20.476;2022-12-29T00:47:00;8.92;56.06
68867;SHT30;56451;44.804;20.476;2022-12-29T00:49:31;8.91;56.11
68867;SHT30;56451;44.804;20.476;2022-12-29T00:52:16;8.92;56.24
68867;SHT30;56451;44.804;20.476;2022-12-29T00:54:44;8.90;56.22
68867;SHT30;56451;44.804;20.476;2022-12-29T00:57:11;8.92;56.30
68867;SHT30;56451;44.804;20.476;2022-12-29T00:59:39;8.92;56.40
68867;SHT30;56451;44.804;20.476;2022-12-29T01:02:05;8.91;56.44
68867;SHT30;56451;44.804;20.476;2022-12-29T01:04:31;8.91;56.58
68867;SHT30;56451;44.804;20.476;2022-12-29T01:06:57;8.94;56.65
68867;SHT30;56451;44.804;20.476;2022-12-29T01:09:23;8.96;56.68
68867;SHT30;56451;44.804;20.476;2022-12-29T01:12:08;8.91;56.71
68867;SHT30;56451;44.804;20.476;2022-12-29T01:14:34;8.92;56.80
68867;SHT30;56451;44.804;20.476;2022-12-29T01:17:02;8.94;56.85
68867;SHT30;56451;44.804;20.476;2022-12-29T01:19:28;8.96;56.75
68867;SHT30;56451;44.804;20.476;2022-12-29T01:21:55;9.01;56.69
68867;SHT30;56451;44.804;20.476;2022-12-29T01:24:21;8.97;56.71
68867;SHT30;56451;44.804;20.476;2022-12-29T01:26:47;9.04;56.45
68867;SHT30;56451;44.804;20.476;2022-12-29T01:29:16;9.08;56.35
68867;SHT30;56451;44.804;20.476;2022-12-29T01:31:44;9.11;56.34
68867;SHT30;56451;44.804;20.476;2022-12-29T01:34:10;9.12;56.26
68867;SHT30;56451;44.804;20.476;2022-12-29T01:36:37;9.11;56.35
68867;SHT30;56451;44.804;20.476;2022-12-29T01:39:03;9.11;56.25
68867;SHT30;56451;44.804;20.476;2022-12-29T01:41:29;9.11;56.28
68867;SHT30;56451;44.804;20.476;2022-12-29T01:43:57;9.11;56.21
68867;SHT30;56451;44.804;20.476;2022-12-29T01:46:50;9.11;56.29
68867;SHT30;56451;44.804;20.476;2022-12-29T01:49:26;9.05;56.40
68867;SHT30;56451;44.804;20.476;2022-12-29T01:52:01;9.05;56.47
68867;SHT30;56451;44.804;20.476;2022-12-29T01:54:39;9.04;56.47
68867;SHT30;56451;44.804;20.476;2022-12-29T01:57:10;9.03;56.43
68867;SHT30;56451;44.804;20.476;2022-12-29T01:59:41;9.04;56.48
68867;SHT30;56451;44.804;20.476;2022-12-29T02:02:10;9.05;56.43
68867;SHT30;56451;44.804;20.476;2022-12-29T02:04:40;9.03;56.53
68867;SHT30;56451;44.804;20.476;2022-12-29T02:07:16;9.00;56.75
68867;SHT30;56451;44.804;20.476;2022-12-29T02:09:46;9.03;56.68
68867;SHT30;56451;44.804;20.476;2022-12-29T02:12:16;9.01;56.71
68867;SHT30;56451;44.804;20.476;2022-12-29T02:14:43;9.03;56.65
68867;SHT30;56451;44.804;20.476;2022-12-29T02:28:39;9.01;56.92
68867;SHT30;56451;44.804;20.476;2022-12-29T02:31:39;8.94;57.23
68867;SHT30;56451;44.804;20.476;2022-12-29T02:37:06;9.00;57.26
68867;SHT30;56451;44.804;20.476;2022-12-29T02:45:06;9.03;57.38
68867;SHT30;56451;44.804;20.476;2022-12-29T02:47:42;9.05;57.30
68867;SHT30;56451;44.804;20.476;2022-12-29T02:50:19;9.05;57.20
68867;SHT30;56451;44.804;20.476;2022-12-29T02:52:54;9.04;57.41
68867;SHT30;56451;44.804;20.476;2022-12-29T02:55:22;9.01;57.56
68867;SHT30;56451;44.804;20.476;2022-12-29T02:57:49;8.98;57.84
68867;SHT30;56451;44.804;20.476;2022-12-29T03:00:30;9.01;57.91
68867;SHT30;56451;44.804;20.476;2022-12-29T03:03:45;9.04;58.07
68867;SHT30;56451;44.804;20.476;2022-12-29T03:06:50;9.07;58.04
68867;SHT30;56451;44.804;20.476;2022-12-29T03:11:56;9.19;57.90
68867;SHT30;56451;44.804;20.476;2022-12-29T03:17:27;9.19;58.15
68867;SHT30;56451;44.804;20.476;2022-12-29T03:20:02;9.18;58.40
68867;SHT30;56451;44.804;20.476;2022-12-29T03:22:32;9.21;58.52
68867;SHT30;56451;44.804;20.476;2022-12-29T03:25:13;9.22;58.59
68867;SHT30;56451;44.804;20.476;2022-12-29T03:27:48;9.25;58.64
68867;SHT30;56451;44.804;20.476;2022-12-29T03:30:15;9.29;58.70
68867;SHT30;56451;44.804;20.476;2022-12-29T03:32:52;9.32;58.90
68867;SHT30;56451;44.804;20.476;2022-12-29T03:35:25;9.31;58.87
68867;SHT30;56451;44.804;20.476;2022-12-29T03:40:23;9.34;59.03
68867;SHT30;56451;44.804;20.476;2022-12-29T03:42:50;9.32;59.22
68867;SHT30;56451;44.804;20.476;2022-12-29T03:45:17;9.38;59.19
68867;SHT30;56451;44.804;20.476;2022-12-29T03:47:44;9.42;59.21
68867;SHT30;56451;44.804;20.476;2022-12-29T03:50:14;9.49;59.17
68867;SHT30;56451;44.804;20.476;2022-12-29T03:52:41;9.52;59.16
68867;SHT30;56451;44.804;20.476;2022-12-29T03:55:07;9.53;59.17
68867;SHT30;56451;44.804;20.476;2022-12-29T03:57:33;9.60;59.08
68867;SHT30;56451;44.804;20.476;2022-12-29T04:00:04;9.66;58.98
68867;SHT30;56451;44.804;20.476;2022-12-29T04:02:40;9.69;58.83
68867;SHT30;56451;44.804;20.476;2022-12-29T04:05:08;9.70;58.84
68867;SHT30;56451;44.804;20.476;2022-12-29T04:07:34;9.70;58.92
68867;SHT30;56451;44.804;20.476;2022-12-29T04:10:02;9.72;58.98
68867;SHT30;56451;44.804;20.476;2022-12-29T04:12:30;9.77;58.81
68867;SHT30;56451;44.804;20.476;2022-12-29T04:14:56;9.83;58.59
68867;SHT30;56451;44.804;20.476;2022-12-29T04:17:22;9.80;58.60
68867;SHT30;56451;44.804;20.476;2022-12-29T04:19:51;9.80;58.59
68867;SHT30;56451;44.804;20.476;2022-12-29T04:22:37;9.85;58.03
68867;SHT30;56451;44.804;20.476;2022-12-29T04:25:03;9.83;58.14
68867;SHT30;56451;44.804;20.476;2022-12-29T04:27:29;9.80;58.35
68867;SHT30;56451;44.804;20.476;2022-12-29T04:30:15;9.80;58.65
68867;SHT30;56451;44.804;20.476;2022-12-29T04:32:48;9.83;58.58
68867;SHT30;56451;44.804;20.476;2022-12-29T04:35:14;9.85;58.43
68867;SHT30;56451;44.804;20.476;2022-12-29T04:37:41;9.90;58.37
68867;SHT30;56451;44.804;20.476;2022-12-29T04:40:07;9.98;58.40
68867;SHT30;56451;44.804;20.476;2022-12-29T04:42:33;10.00;58.24
68867;SHT30;56451;44.804;20.476;2022-12-29T04:45:00;10.06;58.19
68867;SHT30;56451;44.804;20.476;2022-12-29T04:47:44;10.04;58.12
68867;SHT30;56451;44.804;20.476;2022-12-29T04:50:33;10.03;58.07
68867;SHT30;56451;44.804;20.476;2022-12-29T04:53:17;9.97;58.12
68867;SHT30;56451;44.804;20.476;2022-12-29T04:55:44;10.00;58.05
68867;SHT30;56451;44.804;20.476;2022-12-29T04:58:13;10.00;58.02
68867;SHT30;56451;44.804;20.476;2022-12-29T05:00:40;9.98;58.11
68867;SHT30;56451;44.804;20.476;2022-12-29T05:03:06;9.97;58.04
68867;SHT30;56451;44.804;20.476;2022-12-29T05:05:32;10.00;58.08
68867;SHT30;56451;44.804;20.476;2022-12-29T05:07:58;9.98;58.13
68867;SHT30;56451;44.804;20.476;2022-12-29T05:10:24;10.00;58.18
68867;SHT30;56451;44.804;20.476;2022-12-29T05:12:53;10.04;57.88
68867;SHT30;56451;44.804;20.476;2022-12-29T05:15:19;10.06;57.78
68867;SHT30;56451;44.804;20.476;2022-12-29T05:17:45;10.01;57.72
68867;SHT30;56451;44.804;20.476;2022-12-29T05:20:11;10.01;57.77
68867;SHT30;56451;44.804;20.476;2022-12-29T05:22:37;9.98;57.85
68867;SHT30;56451;44.804;20.476;2022-12-29T05:25:04;10.00;57.96
68867;SHT30;56451;44.804;20.476;2022-12-29T05:27:35;10.03;57.79
68867;SHT30;56451;44.804;20.476;2022-12-29T05:30:29;10.03;57.63
68867;SHT30;56451;44.804;20.476;2022-12-29T05:32:55;10.01;57.55
68867;SHT30;56451;44.804;20.476;2022-12-29T05:35:22;10.04;57.55
68867;SHT30;56451;44.804;20.476;2022-12-29T05:37:48;9.97;57.83
68867;SHT30;56451;44.804;20.476;2022-12-29T05:40:14;9.87;58.25
68867;SHT30;56451;44.804;20.476;2022-12-29T05:42:41;9.83;58.45
68867;SHT30;56451;44.804;20.476;2022-12-29T05:45:32;9.83;58.53
68867;SHT30;56451;44.804;20.476;2022-12-29T05:48:11;9.86;58.58
68867;SHT30;56451;44.804;20.476;2022-12-29T05:51:00;9.82;58.76
68867;SHT30;56451;44.804;20.476;2022-12-29T05:53:36;9.82;58.81
68867;SHT30;56451;44.804;20.476;2022-12-29T05:56:02;9.87;58.78
68867;SHT30;56451;44.804;20.476;2022-12-29T05:58:28;9.91;58.52
68867;SHT30;56451;44.804;20.476;2022-12-29T06:00:54;9.90;58.48
68867;SHT30;56451;44.804;20.476;2022-12-29T06:03:20;9.86;58.68
68867;SHT30;56451;44.804;20.476;2022-12-29T06:05:46;9.85;59.10
68867;SHT30;56451;44.804;20.476;2022-12-29T06:08:13;9.82;59.29
68867;SHT30;56451;44.804;20.476;2022-12-29T06:10:39;9.83;59.26
68867;SHT30;56451;44.804;20.476;2022-12-29T06:13:07;9.90;59.67
68867;SHT30;56451;44.804;20.476;2022-12-29T06:15:36;9.97;58.88
68867;SHT30;56451;44.804;20.476;2022-12-29T06:18:05;10.00;58.51
68867;SHT30;56451;44.804;20.476;2022-12-29T06:20:31;9.98;58.43
68867;SHT30;56451;44.804;20.476;2022-12-29T06:22:56;9.97;58.45
68867;SHT30;56451;44.804;20.476;2022-12-29T06:25:23;9.94;58.45
68867;SHT30;56451;44.804;20.476;2022-12-29T06:27:48;9.96;58.39
68867;SHT30;56451;44.804;20.476;2022-12-29T06:30:14;9.94;58.36
68867;SHT30;56451;44.804;20.476;2022-12-29T06:32:42;9.91;58.45
68867;SHT30;56451;44.804;20.476;2022-12-29T06:35:11;9.93;58.60
68867;SHT30;56451;44.804;20.476;2022-12-29T06:37:44;9.90;58.62
68867;SHT30;56451;44.804;20.476;2022-12-29T06:40:10;9.91;58.65
68867;SHT30;56451;44.804;20.476;2022-12-29T06:43:09;9.89;58.83
68867;SHT30;56451;44.804;20.476;2022-12-29T06:45:58;9.90;58.66
68867;SHT30;56451;44.804;20.476;2022-12-29T06:48:24;9.87;59.04
68867;SHT30;56451;44.804;20.476;2022-12-29T06:50:50;9.85;59.23
68867;SHT30;56451;44.804;20.476;2022-12-29T06:53:16;9.93;58.86
68867;SHT30;56451;44.804;20.476;2022-12-29T06:55:42;9.98;58.62
68867;SHT30;56451;44.804;20.476;2022-12-29T06:58:07;9.98;58.68
68867;SHT30;56451;44.804;20.476;2022-12-29T07:00:33;10.00;58.79
68867;SHT30;56451;44.804;20.476;2022-12-29T07:03:00;10.07;58.92
68867;SHT30;56451;44.804;20.476;2022-12-29T07:05:26;10.13;58.78
68867;SHT30;56451;44.804;20.476;2022-12-29T07:07:56;10.16;58.85
68867;SHT30;56451;44.804;20.476;2022-12-29T07:10:22;10.17;58.83
68867;SHT30;56451;44.804;20.476;2022-12-29T07:12:48;10.16;58.73
68867;SHT30;56451;44.804;20.476;2022-12-29T07:15:14;10.27;58.50
68867;SHT30;56451;44.804;20.476;2022-12-29T07:17:40;10.28;58.44
68867;SHT30;56451;44.804;20.476;2022-12-29T07:20:06;10.34;58.49
68867;SHT30;56451;44.804;20.476;2022-12-29T07:22:32;10.31;58.50
68867;SHT30;56451;44.804;20.476;2022-12-29T07:24:58;10.35;58.63
68867;SHT30;56451;44.804;20.476;2022-12-29T07:27:24;10.41;58.53
68867;SHT30;56451;44.804;20.476;2022-12-29T07:29:50;10.45;58.34
68867;SHT30;56451;44.804;20.476;2022-12-29T07:32:16;10.51;58.09
68867;SHT30;56451;44.804;20.476;2022-12-29T07:34:42;10.61;57.80
68867;SHT30;56451;44.804;20.476;2022-12-29T07:37:10;10.66;57.58
68867;SHT30;56451;44.804;20.476;2022-12-29T07:39:36;10.69;57.54
68867;SHT30;56451;44.804;20.476;2022-12-29T07:42:02;10.71;57.51
68867;SHT30;56451;44.804;20.476;2022-12-29T07:44:36;10.80;57.39
68867;SHT30;56451;44.804;20.476;2022-12-29T07:47:15;10.83;57.29
68867;SHT30;56451;44.804;20.476;2022-12-29T07:49:41;10.83;57.27
68867;SHT30;56451;44.804;20.476;2022-12-29T07:52:07;10.91;57.32
68867;SHT30;56451;44.804;20.476;2022-12-29T07:54:33;11.00;57.22
68867;SHT30;56451;44.804;20.476;2022-12-29T07:56:58;11.03;57.20
68867;SHT30;56451;44.804;20.476;2022-12-29T07:59:26;11.12;57.16
68867;SHT30;56451;44.804;20.476;2022-12-29T08:01:52;11.13;57.09
68867;SHT30;56451;44.804;20.476;2022-12-29T08:04:18;11.20;57.01
68867;SHT30;56451;44.804;20.476;2022-12-29T08:06:43;11.26;56.92
68867;SHT30;56451;44.804;20.476;2022-12-29T08:09:11;11.34;57.47
68867;SHT30;56451;44.804;20.476;2022-12-29T08:11:36;11.35;57.40
68867;SHT30;56451;44.804;20.476;2022-12-29T08:14:03;11.47;57.30
68867;SHT30;56451;44.804;20.476;2022-12-29T08:16:29;11.60;57.25
68867;SHT30;56451;44.804;20.476;2022-12-29T08:18:56;11.72;57.00
68867;SHT30;56451;44.804;20.476;2022-12-29T08:21:22;11.79;56.75
68867;SHT30;56451;44.804;20.476;2022-12-29T08:23:48;11.86;56.74
68867;SHT30;56451;44.804;20.476;2022-12-29T08:26:13;11.96;56.53
68867;SHT30;56451;44.804;20.476;2022-12-29T08:28:39;12.08;56.28
68867;SHT30;56451;44.804;20.476;2022-12-29T08:31:05;12.12;56.07
68867;SHT30;56451;44.804;20.476;2022-12-29T08:33:31;12.22;55.70
68867;SHT30;56451;44.804;20.476;2022-12-29T08:36:04;12.30;55.46
68867;SHT30;56451;44.804;20.476;2022-12-29T08:38:31;12.34;55.45
68867;SHT30;56451;44.804;20.476;2022-12-29T08:40:58;12.44;55.39
68867;SHT30;56451;44.804;20.476;2022-12-29T08:43:24;12.54;55.30
68867;SHT30;56451;44.804;20.476;2022-12-29T08:45:50;12.61;55.07
68867;SHT30;56451;44.804;20.476;2022-12-29T08:48:16;12.68;55.14
68867;SHT30;56451;44.804;20.476;2022-12-29T08:50:48;12.73;55.10
68867;SHT30;56451;44.804;20.476;2022-12-29T08:53:14;12.81;54.94
68867;SHT30;56451;44.804;20.476;2022-12-29T08:55:40;12.87;54.70
68867;SHT30;56451;44.804;20.476;2022-12-29T08:58:06;12.95;54.60
68867;SHT30;56451;44.804;20.476;2022-12-29T09:00:34;13.02;54.34
68867;SHT30;56451;44.804;20.476;2022-12-29T09:03:01;13.08;54.15
68867;SHT30;56451;44.804;20.476;2022-12-29T09:05:27;13.15;54.66
68867;SHT30;56451;44.804;20.476;2022-12-29T09:07:53;13.19;54.38
68867;SHT30;56451;44.804;20.476;2022-12-29T09:10:19;13.29;54.15
68867;SHT30;56451;44.804;20.476;2022-12-29T09:12:44;13.35;53.83
68867;SHT30;56451;44.804;20.476;2022-12-29T09:15:10;13.40;54.44
68867;SHT30;56451;44.804;20.476;2022-12-29T09:17:37;13.47;54.06
68867;SHT30;56451;44.804;20.476;2022-12-29T09:20:14;13.53;54.16
68867;SHT30;56451;44.804;20.476;2022-12-29T09:22:40;13.59;53.70
68867;SHT30;56451;44.804;20.476;2022-12-29T09:25:06;13.69;53.59
68867;SHT30;56451;44.804;20.476;2022-12-29T09:27:33;13.80;53.59
68867;SHT30;56451;44.804;20.476;2022-12-29T09:30:00;13.81;53.01
68867;SHT30;56451;44.804;20.476;2022-12-29T09:32:25;13.85;53.34
68867;SHT30;56451;44.804;20.476;2022-12-29T09:34:51;13.93;53.62
68867;SHT30;56451;44.804;20.476;2022-12-29T09:37:17;14.00;53.14
68867;SHT30;56451;44.804;20.476;2022-12-29T09:39:43;14.07;53.04
68867;SHT30;56451;44.804;20.476;2022-12-29T09:42:27;14.12;52.98
68867;SHT30;56451;44.804;20.476;2022-12-29T09:45:15;14.21;52.48
68867;SHT30;56451;44.804;20.476;2022-12-29T09:47:44;14.28;52.45
68867;SHT30;56451;44.804;20.476;2022-12-29T09:50:29;14.38;52.47
68867;SHT30;56451;44.804;20.476;2022-12-29T09:53:14;14.46;51.92
68867;SHT30;56451;44.804;20.476;2022-12-29T09:55:49;14.51;51.75
68867;SHT30;56451;44.804;20.476;2022-12-29T09:58:32;14.59;51.56
68867;SHT30;56451;44.804;20.476;2022-12-29T10:01:05;14.68;51.38
68867;SHT30;56451;44.804;20.476;2022-12-29T10:03:47;14.72;51.05
68867;SHT30;56451;44.804;20.476;2022-12-29T10:06:24;14.76;51.33
68867;SHT30;56451;44.804;20.476;2022-12-29T10:09:39;14.84;50.90
68867;SHT30;56451;44.804;20.476;2022-12-29T10:17:38;14.99;50.41
68867;SHT30;56451;44.804;20.476;2022-12-29T10:25:23;15.17;49.81
68867;SHT30;56451;44.804;20.476;2022-12-29T10:27:50;15.21;48.72
68867;SHT30;56451;44.804;20.476;2022-12-29T10:30:17;15.26;48.54
68867;SHT30;56451;44.804;20.476;2022-12-29T10:33:00;15.26;48.69
68867;SHT30;56451;44.804;20.476;2022-12-29T10:35:34;15.31;48.24
68867;SHT30;56451;44.804;20.476;2022-12-29T10:41:03;15.42;47.16
68867;SHT30;56451;44.804;20.476;2022-12-29T10:43:41;15.44;47.45
68867;SHT30;56451;44.804;20.476;2022-12-29T10:46:12;15.45;46.49
68867;SHT30;56451;44.804;20.476;2022-12-29T10:48:40;15.48;46.35
68867;SHT30;56451;44.804;20.476;2022-12-29T10:51:07;15.48;46.89
68867;SHT30;56451;44.804;20.476;2022-12-29T10:53:44;15.55;46.39
68867;SHT30;56451;44.804;20.476;2022-12-29T10:56:27;15.57;46.61
68867;SHT30;56451;44.804;20.476;2022-12-29T10:58:57;15.59;46.80
68867;SHT30;56451;44.804;20.476;2022-12-29T11:01:34;15.65;46.69
68867;SHT30;56451;44.804;20.476;2022-12-29T11:04:07;15.73;46.71
68867;SHT30;56451;44.804;20.476;2022-12-29T11:06:42;15.75;46.56
68867;SHT30;56451;44.804;20.476;2022-12-29T11:09:13;15.83;46.62
68867;SHT30;56451;44.804;20.476;2022-12-29T11:11:40;15.89;46.44
68867;SHT30;56451;44.804;20.476;2022-12-29T11:16:35;16.09;45.33
68867;SHT30;56451;44.804;20.476;2022-12-29T11:19:01;16.17;44.88
68867;SHT30;56451;44.804;20.476;2022-12-29T11:21:31;16.21;45.17
68867;SHT30;56451;44.804;20.476;2022-12-29T11:24:03;16.26;44.87
68867;SHT30;56451;44.804;20.476;2022-12-29T11:26:30;16.33;44.13
68867;SHT30;56451;44.804;20.476;2022-12-29T11:29:25;16.45;43.61
68867;SHT30;56451;44.804;20.476;2022-12-29T11:31:54;16.53;43.32
68867;SHT30;56451;44.804;20.476;2022-12-29T11:34:34;16.58;43.03
68867;SHT30;56451;44.804;20.476;2022-12-29T11:39:57;16.74;42.62
68867;SHT30;56451;44.804;20.476;2022-12-29T11:42:33;16.74;42.60
68867;SHT30;56451;44.804;20.476;2022-12-29T11:45:06;16.84;41.94
68867;SHT30;56451;44.804;20.476;2022-12-29T11:47:33;16.84;41.96
68867;SHT30;56451;44.804;20.476;2022-12-29T11:50:02;16.89;41.22
68867;SHT30;56451;44.804;20.476;2022-12-29T11:52:32;16.94;41.84
68867;SHT30;56451;44.804;20.476;2022-12-29T11:55:03;16.94;41.18
68867;SHT30;56451;44.804;20.476;2022-12-29T11:57:32;17.01;41.29
68867;SHT30;56451;44.804;20.476;2022-12-29T12:00:02;17.03;41.67
68867;SHT30;56451;44.804;20.476;2022-12-29T12:02:59;17.13;41.22
68867;SHT30;56451;44.804;20.476;2022-12-29T12:08:38;17.26;40.22
68867;SHT30;56451;44.804;20.476;2022-12-29T12:11:28;17.30;39.80
68867;SHT30;56451;44.804;20.476;2022-12-29T12:17:36;17.32;39.77
68867;SHT30;56451;44.804;20.476;2022-12-29T12:22:38;17.33;39.88
68867;SHT30;56451;44.804;20.476;2022-12-29T12:30:21;17.33;39.77
68867;SHT30;56451;44.804;20.476;2022-12-29T12:38:58;17.34;40.68
68867;SHT30;56451;44.804;20.476;2022-12-29T12:42:06;17.39;40.47
68867;SHT30;56451;44.804;20.476;2022-12-29T12:53:22;17.44;40.62
68867;SHT30;56451;44.804;20.476;2022-12-29T12:59:32;17.47;40.32
68867;SHT30;56451;44.804;20.476;2022-12-29T13:11:12;17.49;40.57
68867;SHT30;56451;44.804;20.476;2022-12-29T13:16:37;17.49;40.65
68867;SHT30;56451;44.804;20.476;2022-12-29T13:19:30;17.53;40.55
68867;SHT30;56451;44.804;20.476;2022-12-29T13:32:41;17.67;43.58
68867;SHT30;56451;44.804;20.476;2022-12-29T13:35:19;17.69;43.31
68867;SHT30;56451;44.804;20.476;2022-12-29T13:38:11;17.64;46.08
68867;SHT30;56451;44.804;20.476;2022-12-29T13:40:52;17.64;51.86
68867;SHT30;56451;44.804;20.476;2022-12-29T13:43:20;17.64;49.66
68867;SHT30;56451;44.804;20.476;2022-12-29T13:46:13;17.61;51.39
68867;SHT30;56451;44.804;20.476;2022-12-29T13:48:44;17.55;46.24
68867;SHT30;56451;44.804;20.476;2022-12-29T13:51:12;17.50;47.42
68867;SHT30;56451;44.804;20.476;2022-12-29T13:54:02;17.47;48.53
68867;SHT30;56451;44.804;20.476;2022-12-29T13:56:51;17.42;48.33
68867;SHT30;56451;44.804;20.476;2022-12-29T13:59:36;17.40;46.75
68867;SHT30;56451;44.804;20.476;2022-12-29T14:05:02;17.30;50.39
68867;SHT30;56451;44.804;20.476;2022-12-29T14:07:29;17.26;51.56
68867;SHT30;56451;44.804;20.476;2022-12-29T14:10:01;17.24;50.26
68867;SHT30;56451;44.804;20.476;2022-12-29T14:12:40;17.22;50.47
68867;SHT30;56451;44.804;20.476;2022-12-29T14:17:44;17.15;50.55
68867;SHT30;56451;44.804;20.476;2022-12-29T14:20:25;17.11;49.99
68867;SHT30;56451;44.804;20.476;2022-12-29T14:26:11;17.12;43.37
68867;SHT30;56451;44.804;20.476;2022-12-29T14:28:45;17.11;42.08
68867;SHT30;56451;44.804;20.476;2022-12-29T14:37:03;16.94;43.86
68867;SHT30;56451;44.804;20.476;2022-12-29T14:39:40;16.95;42.51
68867;SHT30;56451;44.804;20.476;2022-12-29T14:44:53;16.84;42.80
68867;SHT30;56451;44.804;20.476;2022-12-29T14:50:02;16.74;43.75
68867;SHT30;56451;44.804;20.476;2022-12-29T14:52:30;16.69;44.21
68867;SHT30;56451;44.804;20.476;2022-12-29T14:54:57;16.60;44.32
68867;SHT30;56451;44.804;20.476;2022-12-29T14:57:30;16.55;44.61
68867;SHT30;56451;44.804;20.476;2022-12-29T15:02:36;16.45;44.86
68867;SHT30;56451;44.804;20.476;2022-12-29T15:05:05;16.44;45.16
68867;SHT30;56451;44.804;20.476;2022-12-29T15:07:32;16.43;45.23
68867;SHT30;56451;44.804;20.476;2022-12-29T15:10:05;16.36;45.44
68867;SHT30;56451;44.804;20.476;2022-12-29T15:12:45;16.38;45.56
68867;SHT30;56451;44.804;20.476;2022-12-29T15:15:22;16.37;46.20
68867;SHT30;56451;44.804;20.476;2022-12-29T15:17:49;16.38;45.72
68867;SHT30;56451;44.804;20.476;2022-12-29T15:20:27;16.34;46.08
68867;SHT30;56451;44.804;20.476;2022-12-29T15:23:07;16.33;46.13
68867;SHT30;56451;44.804;20.476;2022-12-29T15:25:35;16.31;47.45
68867;SHT30;56451;44.804;20.476;2022-12-29T15:28:04;16.37;45.95
68867;SHT30;56451;44.804;20.476;2022-12-29T15:30:30;16.40;46.18
68867;SHT30;56451;44.804;20.476;2022-12-29T15:32:57;16.37;46.13
68867;SHT30;56451;44.804;20.476;2022-12-29T15:37:59;16.37;46.67
68867;SHT30;56451;44.804;20.476;2022-12-29T15:40:29;16.36;46.89
68867;SHT30;56451;44.804;20.476;2022-12-29T15:45:43;16.33;46.40
68867;SHT30;56451;44.804;20.476;2022-12-29T15:48:21;16.30;46.58
68867;SHT30;56451;44.804;20.476;2022-12-29T15:50:48;16.28;46.44
68867;SHT30;56451;44.804;20.476;2022-12-29T15:53:31;16.23;46.83
68867;SHT30;56451;44.804;20.476;2022-12-29T15:56:06;16.23;45.95
68867;SHT30;56451;44.804;20.476;2022-12-29T15:58:42;16.17;46.67
68867;SHT30;56451;44.804;20.476;2022-12-29T16:01:27;16.09;46.98
68867;SHT30;56451;44.804;20.476;2022-12-29T16:03:54;16.10;46.50
68867;SHT30;56451;44.804;20.476;2022-12-29T16:06:30;16.05;46.61
68867;SHT30;56451;44.804;20.476;2022-12-29T16:09:14;15.97;46.67
68867;SHT30;56451;44.804;20.476;2022-12-29T16:14:18;15.89;47.38
68867;SHT30;56451;44.804;20.476;2022-12-29T16:16:45;15.88;46.75
68867;SHT30;56451;44.804;20.476;2022-12-29T16:19:19;15.86;47.38
68867;SHT30;56451;44.804;20.476;2022-12-29T16:21:47;15.83;47.17
68867;SHT30;56451;44.804;20.476;2022-12-29T16:24:19;15.82;46.91
68867;SHT30;56451;44.804;20.476;2022-12-29T16:27:09;15.81;47.44
68867;SHT30;56451;44.804;20.476;2022-12-29T16:29:40;15.76;47.71
68867;SHT30;56451;44.804;20.476;2022-12-29T16:32:25;15.79;47.25
68867;SHT30;56451;44.804;20.476;2022-12-29T16:35:05;15.78;47.47
68867;SHT30;56451;44.804;20.476;2022-12-29T16:37:35;15.79;46.98
68867;SHT30;56451;44.804;20.476;2022-12-29T16:42:48;15.75;47.08
68867;SHT30;56451;44.804;20.476;2022-12-29T16:47:40;15.68;47.60
68867;SHT30;56451;44.804;20.476;2022-12-29T16:50:16;15.68;47.43
68867;SHT30;56451;44.804;20.476;2022-12-29T16:52:48;15.63;47.31
68867;SHT30;56451;44.804;20.476;2022-12-29T16:55:16;15.65;47.31
68867;SHT30;56451;44.804;20.476;2022-12-29T16:57:44;15.62;47.36
68867;SHT30;56451;44.804;20.476;2022-12-29T17:00:21;15.63;47.36
68867;SHT30;56451;44.804;20.476;2022-12-29T17:02:49;15.61;47.77
68867;SHT30;56451;44.804;20.476;2022-12-29T17:05:17;15.61;47.29
68867;SHT30;56451;44.804;20.476;2022-12-29T17:07:43;15.57;47.39
68867;SHT30;56451;44.804;20.476;2022-12-29T17:10:10;15.57;47.43
68867;SHT30;56451;44.804;20.476;2022-12-29T17:12:38;15.55;47.44
68867;SHT30;56451;44.804;20.476;2022-12-29T17:17:41;15.52;47.90
68867;SHT30;56451;44.804;20.476;2022-12-29T17:20:40;15.54;47.39
68867;SHT30;56451;44.804;20.476;2022-12-29T17:23:13;15.48;47.47
68867;SHT30;56451;44.804;20.476;2022-12-29T17:25:40;15.51;47.57
68867;SHT30;56451;44.804;20.476;2022-12-29T17:30:42;15.49;47.69
68867;SHT30;56451;44.804;20.476;2022-12-29T17:33:13;15.52;47.73
68867;SHT30;56451;44.804;20.476;2022-12-29T17:35:40;15.51;47.71
68867;SHT30;56451;44.804;20.476;2022-12-29T17:38:17;15.48;47.72
68867;SHT30;56451;44.804;20.476;2022-12-29T17:40:44;15.48;47.77
68867;SHT30;56451;44.804;20.476;2022-12-29T17:43:12;15.42;47.97
68867;SHT30;56451;44.804;20.476;2022-12-29T17:45:39;15.51;47.90
68867;SHT30;56451;44.804;20.476;2022-12-29T17:48:15;15.47;47.92
68867;SHT30;56451;44.804;20.476;2022-12-29T17:50:41;15.45;47.98
68867;SHT30;56451;44.804;20.476;2022-12-29T17:53:23;15.39;47.99
68867;SHT30;56451;44.804;20.476;2022-12-29T17:55:50;15.34;48.12
68867;SHT30;56451;44.804;20.476;2022-12-29T17:58:18;15.34;48.24
68867;SHT30;56451;44.804;20.476;2022-12-29T18:00:46;15.31;48.38
68867;SHT30;56451;44.804;20.476;2022-12-29T18:03:18;15.31;48.47
68867;SHT30;56451;44.804;20.476;2022-12-29T18:05:45;15.32;48.49
68867;SHT30;56451;44.804;20.476;2022-12-29T18:08:11;15.30;48.54
68867;SHT30;56451;44.804;20.476;2022-12-29T18:10:38;15.32;48.66
68867;SHT30;56451;44.804;20.476;2022-12-29T18:13:04;15.34;48.49
68867;SHT30;56451;44.804;20.476;2022-12-29T18:15:33;15.30;48.59